Aviation Digital Data Service (ADDS)

Output produced by METARs form (1804 UTC 19 October 2017)
found at http://www.aviationweather.gov/adds/metars/
 
DAUA 191700Z 24010KT CAVOK 32/05 Q1014
TAF DAUA 191700Z 1918/2018 24010KT CAVOK 
     BECMG 1920/1923 VRB02KT 
     BECMG 1208/1211 31010KT
       
DABB 191730Z 09010KT 9999 FEW026 SCT090 22/17 Q1009
TAF DABB 191700Z 1918/2018 10016KT 9999 SCT026 
     BECMG 1919/1921 22012KT SCT023TCU 
     TEMPO 1921/2006 5000 -RA 
     PROB30 
     TEMPO 2000/2008 3000 -TSRA FEW026CB
       
DABT 191700Z 22014KT 9999 SCT026 SCT090 BKN200 21/04 Q1015
TAF DABT 191700Z 1918/2018 22014KT 9999 SCT030 
     BECMG 1919/1920 SCT026TCU 
     TEMPO 1920/2006 5000 -RA 
     PROB30 
     TEMPO 1922/2006 3000 -TSRA FEW026CB
       
DAOR 191700Z 31007KT 9999 FEW033 SCT233 25/07 Q1017
TAF DAOR 191700Z 1918/2003 28010KT 9999 FEW033 SCT100
       
DAAE 191700Z 28005KT 9000 -RA SCT016 BKN040 20/17 Q1011
TAF DAAE 191700Z 1918/2018 28014KT 9999 SCT020TCU 
     TEMPO 1918/2003 5000 -RA 
     PROB30 
     TEMPO 1921/2003 20015G25KT 3000 -TSRA FEW020CB
       
DAUB 191700Z 10006KT 9999 SCT040 BKN100 26/11 Q1013
TAF DAUB 191700Z 1918/2018 12012KT 9999 SCT040 
     BECMG 1919/1920 SCT033TCU 
     TEMPO 1920/2006 5000 -RA 
     PROB30 
     TEMPO 1922/2006 3000 -TSRA FEW033CB
       
TAF DATM 191400Z 1915/1924 35010KT CAVOK
       
DAAD 191700Z 28012KT 7000 -RA SCT030 SCT080 17/15 Q1015
TAF DAAD 191700Z 1918/2003 28014KT 8000 SCT030 SCT080 
     PROB40 
     TEMPO 1918/1922 29014G25KT 5000 -TSRA FEW026CB
       
DAOI 191700Z 08004KT 5000 -RA SCT020 SCT026 BKN100 14/14 Q1012 RERA
TAF DAOI 191700Z 1918/2018 36010KT 5000 -RA SCT020 SCT026 BKN100 
     TEMPO 1918/1924 SHRA FEW026CB BKN026TCU 
     TEMPO 2004/2008 4000 RA BR SCT016 BKN026 
     BECMG 2008/2010 32010KT 9999 SCT026
       
DABC 191730Z 23011KT 9999 SCT030 BKN090 22/04 Q1014
TAF DABC 191700Z 1918/2018 20014KT 9999 SCT026TCU 
     TEMPO 1921/2006 5000 -RA 
     PROB30 
     TEMPO 2000/2006 3000 -TSRA FEW026CB 
     BECMG 2003/2006 32010KT
       
DAAG 191730Z 20005KT 8000 -RA SCT013 FEW026TCU BKN040 16/15 Q1012 RERA
TAF DAAG 191700Z 1918/2018 22010KT 9999 SCT018 BKN080 
     TEMPO 1918/1924 22015G25KT4000 -TSRA FEW026CB BKN015 
     BECMG 1922/2002 VRB02KT 
     PROB30 
     TEMPO 2002/2008 5000 -TSRA FEW023CB BKN015 
     BECMG 2007/2011 28012KT
       
DAAJ 191700Z 15005KT CAVOK 27/05 Q1019
TAF DAAJ 191700Z 1918/2018 20008KT CAVOK
       
DAUE 191700Z 15002KT CAVOK 29/10 Q1015
DAUO 191700Z 11003KT CAVOK 26/09 Q1012
TAF DAUO 191700Z 1918/2003 10008KT CAVOK 
     PROB30 1923/2003 -TSRA FEW033CB
       
DAUG 191700Z 22009KT CAVOK 27/06 Q1015
TAF DAUG 191700Z 1918/2018 20010KT CAVOK 
     BECMG 1922/2003 33012KT 
     PROB30 
     TEMPO 1923/2005 32015G30KT FEW033CB
       
DAUH 191730Z 35003KT CAVOK 28/10 Q1013
TAF DAUH 191700Z 1918/2018 02010KT CAVOK 
     BECMG 2008/2011 33012KT 
     PROB30 
     TEMPO 2002/2010 32015G25KT FEW033CB
       
DAAP 191700Z 33011KT CAVOK 33/01 Q1014
TAF DAAP 191700Z 1918/2003 32012KT CAVOK
       
DAUZ 191700Z 25005KT CAVOK 30/M01 Q1014
TAF DAUZ 191700Z 1918/2018 24010KT CAVOK
       
TAF DAUI 191700Z 1918/2018 VRB02KT CAVOK 
     BECMG 2012/2015 32010KT
       
DAAV 191700Z 28008KT 8000 -RA FEW020 FEW023CB BKN030 21/18 Q1012
TAF DAAV 191700Z 1918/2018 30012KT 9999 SCT020TCU 
     TEMPO 1918/2006 5000 -RA 
     PROB30 
     TEMPO 1921/2004 20015G25KT 3000 -TSRA FEW020CB
       
DAUL 191700Z 25018KT 8000 SCT040 SCT080 22/06 Q1015
TAF DAUL 191700Z 1918/2003 24013KT 9999 FEW040 BKN080 
     PROB40 
     TEMPO 1915/1920 27016G30KT FEW030CB
       
DAOV 191700Z 28012KT 4000 RA BR SCT020 SCT023 FEW026CB 15/14 Q1014
TAF DAOV 191700Z 1918/2003 22010KT 4000 RA BR SCT020 SCT023 FEW026CB 
     TEMPO 1918/1922 SHRA
       
DAAY 191700Z 28020KT 7000 SCT030 SCT100 17/13 Q1019
TAF DAAY 191700Z 1918/2003 22015KT 7000 SCT030 SCT100 
     TEMPO 1918/1922 8000 RA BKN030
       
DAOO 191730Z 25008KT 9999 FEW020CB FEW023TCU BKN100 19/16 Q1013
TAF DAOO 191700Z 1918/2018 28010KT 9999 FEW020CB FEW023TCU BKN100 
     TEMPO 1918/1922 SHRA FEW026CB BKN026TCU 
     BECMG 2000/2004 6000 -RA SCT016 BKN020 
     TEMPO 2004/2008 4000 BR SCT016 
     BECMG 2008/2010 32010KT 9999 SCT026
       
DAOL 191700Z 29014KT 8000 SCT016 BKN026 19/19 Q1014
DAUU 191700Z 00000KT 9999 FEW046 BKN233 28/05 Q1013
TAF DAUU 191700Z 1918/2003 VRB02KT 9999 FEW046 
     BECMG 1919/1923 32010KT 
     PROB40 
     TEMPO 1920/1924 32015G25KT FEW033CB
       
DAAS 191700Z 22006KT 8000 -RA BKN030 SCT100 14/10 Q1016
TAF DAAS 191700Z 1918/2018 20014KT 9999 SCT026TCU 
     TEMPO 1918/2003 5000 -RA 
     PROB30 
     TEMPO 1922/2006 3000 -TSRA FEW026CB
       
DAAT 191730Z 26010KT CAVOK 26/M03 Q1023
TAF DAAT 191700Z 1918/2018 23012KT CAVOK 
     BECMG 1920/1923 33010KT 
     BECMG 2009/2012 08010KT 
     BECMG 26010KT
       
DABS 191700Z 22010KT 9999 FEW040 SCT233 22/01 Q1016
TAF DABS 191700Z 1918/2018 20014KT 9999 SCT033 
     BECMG 1920/1922 SCT030TCU 
     TEMPO 2000/2009 5000 -RA 
     PROB30 
     TEMPO 2002/2008 3000 -TSRA FEW030CB
       
DAOB 191700Z 24019KT 8000 -RA FEW020 SCT093 14/12 Q1014
TAF DAOB 191700Z 1918/2018 23014KT 8000 FEW020 
     TEMPO 1918/1922 -RA BKN015 
     PROB30 
     TEMPO 1923/2005 4000 -RABR BKN015 
     BECMG 2006/2008 32012KT
       
DAFH 191700Z 24016KT 9999 BKN030 23/06 Q1017
TAF DAFH 191700Z 1918/2003 24012KT 9999 SCT030 
     PROB40 
     TEMPO 1918/1924 30016G25KT FEW030CB
       
DAUT 191700Z 26015KT CAVOK 32/M02 Q1014
TAF DAUT 191700Z 1918/2003 25012KT CAVOK 
     BECMG 1919/1923 VRB02KT
       
DAOF 191700Z 28016KT CAVOK 30/06 Q1015
TAF DAOF 191700Z 1918/2003 30010KT CAVOK
       
DAON 191730Z 26012KT 9999 SCT020 SCT026 19/14 Q1015
TAF DAON 191700Z 1918/2018 26010KT 9999 SCT020 BKN026 
     TEMPO 1918/1924 SHRA FEW026CB BKN026TCU 
     BECMG 2002/2006 6000 -RA SCT016 BKN020 
     TEMPO 2004/2008 4000 BR SCT016 
     BECMG 2008/2010 32010KT 9999 SCT026
       
DAUK 191700Z 00000KT CAVOK 27/14 Q1013
TAF DAUK 191700Z 1918/2003 06008KT CAVOK 
     PROB30 1923/2003 -TSRA FEW033CB